sensor_id;sensor_type;location;lat;lon;timestamp;temperature;humidity
15690;DHT22;7945;48.816;11.506;2022-12-07T00:01:18;5.00;99.90
15690;DHT22;7945;48.816;11.506;2022-12-07T00:03:48;5.00;99.90
15690;DHT22;7945;48.816;11.506;2022-12-07T00:06:16;5.00;99.90
15690;DHT22;7945;48.816;11.506;2022-12-07T00:08:43;5.00;99.90
15690;DHT22;7945;48.816;11.506;2022-12-07T00:11:12;5.00;99.90
15690;DHT22;7945;48.816;11.506;2022-12-07T00:13:40;5.10;99.90
15690;DHT22;7945;48.816;11.506;2022-12-07T00:16:10;5.10;99.90
15690;DHT22;7945;48.816;11.506;2022-12-07T00:18:37;5.10;99.90
15690;DHT22;7945;48.816;11.506;2022-12-07T00:21:06;5.10;99.90
15690;DHT22;7945;48.816;11.506;2022-12-07T00:23:33;5.10;99.90
15690;DHT22;7945;48.816;11.506;2022-12-07T00:26:05;5.10;99.90
15690;DHT22;7945;48.816;11.506;2022-12-07T00:28:32;5.00;99.90
15690;DHT22;7945;48.816;11.506;2022-12-07T00:31:04;5.10;99.90
15690;DHT22;7945;48.816;11.506;2022-12-07T00:33:31;5.00;99.90
15690;DHT22;7945;48.816;11.506;2022-12-07T00:35:59;5.00;99.90
15690;DHT22;7945;48.816;11.506;2022-12-07T00:38:29;5.00;99.90
15690;DHT22;7945;48.816;11.506;2022-12-07T00:40:56;5.00;99.90
15690;DHT22;7945;48.816;11.506;2022-12-07T00:43:23;5.00;99.90
15690;DHT22;7945;48.816;11.506;2022-12-07T00:45:50;4.90;99.90
15690;DHT22;7945;48.816;11.506;2022-12-07T00:48:17;4.90;99.90
15690;DHT22;7945;48.816;11.506;2022-12-07T00:50:44;4.90;99.90
15690;DHT22;7945;48.816;11.506;2022-12-07T00:53:10;4.90;99.90
15690;DHT22;7945;48.816;11.506;2022-12-07T00:55:39;4.90;99.90
15690;DHT22;7945;48.816;11.506;2022-12-07T00:58:05;4.90;99.90
15690;DHT22;7945;48.816;11.506;2022-12-07T01:00:33;4.90;99.90
15690;DHT22;7945;48.816;11.506;2022-12-07T01:03:01;4.90;99.90
15690;DHT22;7945;48.816;11.506;2022-12-07T01:05:28;4.90;99.90
15690;DHT22;7945;48.816;11.506;2022-12-07T01:07:55;4.90;99.90
15690;DHT22;7945;48.816;11.506;2022-12-07T01:10:22;4.90;99.90
15690;DHT22;7945;48.816;11.506;2022-12-07T01:12:50;4.90;99.90
15690;DHT22;7945;48.816;11.506;2022-12-07T01:15:17;4.90;99.90
15690;DHT22;7945;48.816;11.506;2022-12-07T01:17:43;4.90;99.90
15690;DHT22;7945;48.816;11.506;2022-12-07T01:20:11;4.90;99.90
15690;DHT22;7945;48.816;11.506;2022-12-07T01:22:39;4.80;99.90
15690;DHT22;7945;48.816;11.506;2022-12-07T01:25:07;4.80;99.90
15690;DHT22;7945;48.816;11.506;2022-12-07T01:27:34;4.80;99.90
15690;DHT22;7945;48.816;11.506;2022-12-07T01:30:04;4.80;99.90
15690;DHT22;7945;48.816;11.506;2022-12-07T01:32:31;4.80;99.90
15690;DHT22;7945;48.816;11.506;2022-12-07T01:34:58;4.80;99.90
15690;DHT22;7945;48.816;11.506;2022-12-07T01:37:25;4.80;99.90
15690;DHT22;7945;48.816;11.506;2022-12-07T01:39:52;4.80;99.90
15690;DHT22;7945;48.816;11.506;2022-12-07T01:42:19;4.80;99.90
15690;DHT22;7945;48.816;11.506;2022-12-07T01:47:52;4.80;99.90
15690;DHT22;7945;48.816;11.506;2022-12-07T01:50:20;4.80;99.90
15690;DHT22;7945;48.816;11.506;2022-12-07T01:52:48;4.80;99.90
15690;DHT22;7945;48.816;11.506;2022-12-07T01:55:17;4.80;99.90
15690;DHT22;7945;48.816;11.506;2022-12-07T01:57:47;4.80;99.90
15690;DHT22;7945;48.816;11.506;2022-12-07T02:00:16;4.90;99.90
15690;DHT22;7945;48.816;11.506;2022-12-07T02:02:46;4.90;99.90
15690;DHT22;7945;48.816;11.506;2022-12-07T02:05:16;4.80;99.90
15690;DHT22;7945;48.816;11.506;2022-12-07T02:07:43;4.80;99.90
15690;DHT22;7945;48.816;11.506;2022-12-07T02:10:14;4.80;99.90
15690;DHT22;7945;48.816;11.506;2022-12-07T02:12:41;4.80;99.90
15690;DHT22;7945;48.816;11.506;2022-12-07T02:15:08;4.70;99.90
15690;DHT22;7945;48.816;11.506;2022-12-07T02:17:41;4.70;99.90
15690;DHT22;7945;48.816;11.506;2022-12-07T02:20:21;4.70;99.90
15690;DHT22;7945;48.816;11.506;2022-12-07T02:23:25;4.70;99.90
15690;DHT22;7945;48.816;11.506;2022-12-07T02:29:09;4.80;99.90
15690;DHT22;7945;48.816;11.506;2022-12-07T02:31:41;4.80;99.90
15690;DHT22;7945;48.816;11.506;2022-12-07T02:34:14;4.70;99.90
15690;DHT22;7945;48.816;11.506;2022-12-07T02:36:49;4.70;99.90
15690;DHT22;7945;48.816;11.506;2022-12-07T02:39:22;4.80;99.90
15690;DHT22;7945;48.816;11.506;2022-12-07T02:41:54;4.70;99.90
15690;DHT22;7945;48.816;11.506;2022-12-07T02:44:25;4.70;99.90
15690;DHT22;7945;48.816;11.506;2022-12-07T02:46:57;4.70;99.90
15690;DHT22;7945;48.816;11.506;2022-12-07T02:49:27;4.70;99.90
15690;DHT22;7945;48.816;11.506;2022-12-07T02:51:55;4.70;99.90
15690;DHT22;7945;48.816;11.506;2022-12-07T02:54:22;4.70;99.90
15690;DHT22;7945;48.816;11.506;2022-12-07T02:56:52;4.60;99.90
15690;DHT22;7945;48.816;11.506;2022-12-07T02:59:29;4.60;99.90
15690;DHT22;7945;48.816;11.506;2022-12-07T03:02:06;4.60;99.90
15690;DHT22;7945;48.816;11.506;2022-12-07T03:04:43;4.60;99.90
15690;DHT22;7945;48.816;11.506;2022-12-07T03:07:18;4.60;99.90
15690;DHT22;7945;48.816;11.506;2022-12-07T03:09:54;4.60;99.90
15690;DHT22;7945;48.816;11.506;2022-12-07T03:12:28;4.50;99.90
15690;DHT22;7945;48.816;11.506;2022-12-07T03:15:01;4.50;99.90
15690;DHT22;7945;48.816;11.506;2022-12-07T03:17:32;4.50;99.90
15690;DHT22;7945;48.816;11.506;2022-12-07T03:20:04;4.50;99.90
15690;DHT22;7945;48.816;11.506;2022-12-07T03:22:34;4.50;99.90
15690;DHT22;7945;48.816;11.506;2022-12-07T03:25:05;4.50;99.90
15690;DHT22;7945;48.816;11.506;2022-12-07T03:27:35;4.50;99.90
15690;DHT22;7945;48.816;11.506;2022-12-07T03:30:07;4.50;99.90
15690;DHT22;7945;48.816;11.506;2022-12-07T03:32:37;4.50;99.90
15690;DHT22;7945;48.816;11.506;2022-12-07T03:35:09;4.50;99.90
15690;DHT22;7945;48.816;11.506;2022-12-07T03:37:45;4.50;99.90
15690;DHT22;7945;48.816;11.506;2022-12-07T03:40:15;4.50;99.90
15690;DHT22;7945;48.816;11.506;2022-12-07T03:42:44;4.50;99.90
15690;DHT22;7945;48.816;11.506;2022-12-07T03:45:14;4.60;99.90
15690;DHT22;7945;48.816;11.506;2022-12-07T03:47:46;4.50;99.90
15690;DHT22;7945;48.816;11.506;2022-12-07T03:50:19;4.50;99.90
15690;DHT22;7945;48.816;11.506;2022-12-07T03:52:53;4.60;99.90
15690;DHT22;7945;48.816;11.506;2022-12-07T03:55:27;4.50;99.90
15690;DHT22;7945;48.816;11.506;2022-12-07T03:57:58;4.60;99.90
15690;DHT22;7945;48.816;11.506;2022-12-07T04:00:27;4.50;99.90
15690;DHT22;7945;48.816;11.506;2022-12-07T04:02:55;4.50;99.90
15690;DHT22;7945;48.816;11.506;2022-12-07T04:05:23;4.50;99.90
15690;DHT22;7945;48.816;11.506;2022-12-07T04:07:50;4.50;99.90
15690;DHT22;7945;48.816;11.506;2022-12-07T04:10:17;4.50;99.90
15690;DHT22;7945;48.816;11.506;2022-12-07T04:12:44;4.50;99.90
15690;DHT22;7945;48.816;11.506;2022-12-07T04:15:11;4.50;99.90
15690;DHT22;7945;48.816;11.506;2022-12-07T04:17:39;4.60;99.90
15690;DHT22;7945;48.816;11.506;2022-12-07T04:20:08;4.50;99.90
15690;DHT22;7945;48.816;11.506;2022-12-07T04:22:35;4.60;99.90
15690;DHT22;7945;48.816;11.506;2022-12-07T04:25:02;4.70;99.90
15690;DHT22;7945;48.816;11.506;2022-12-07T04:27:28;4.70;99.90
15690;DHT22;7945;48.816;11.506;2022-12-07T04:29:55;4.70;99.90
15690;DHT22;7945;48.816;11.506;2022-12-07T04:32:22;4.60;99.90
15690;DHT22;7945;48.816;11.506;2022-12-07T04:34:50;4.50;99.90
15690;DHT22;7945;48.816;11.506;2022-12-07T04:37:17;4.50;99.90
15690;DHT22;7945;48.816;11.506;2022-12-07T04:39:44;4.40;99.90
15690;DHT22;7945;48.816;11.506;2022-12-07T04:42:11;4.40;99.90
15690;DHT22;7945;48.816;11.506;2022-12-07T04:44:39;4.40;99.90
15690;DHT22;7945;48.816;11.506;2022-12-07T04:47:06;4.30;99.90
15690;DHT22;7945;48.816;11.506;2022-12-07T04:49:33;4.30;99.90
15690;DHT22;7945;48.816;11.506;2022-12-07T04:52:01;4.30;99.90
15690;DHT22;7945;48.816;11.506;2022-12-07T04:54:28;4.30;99.90
15690;DHT22;7945;48.816;11.506;2022-12-07T04:56:54;4.30;99.90
15690;DHT22;7945;48.816;11.506;2022-12-07T04:59:21;4.20;99.90
15690;DHT22;7945;48.816;11.506;2022-12-07T05:01:48;4.20;99.90
15690;DHT22;7945;48.816;11.506;2022-12-07T05:04:15;4.20;99.90
15690;DHT22;7945;48.816;11.506;2022-12-07T05:06:43;4.10;99.90
15690;DHT22;7945;48.816;11.506;2022-12-07T05:09:11;4.00;99.90
15690;DHT22;7945;48.816;11.506;2022-12-07T05:11:38;3.90;99.90
15690;DHT22;7945;48.816;11.506;2022-12-07T05:14:09;3.90;99.90
15690;DHT22;7945;48.816;11.506;2022-12-07T05:16:36;3.90;99.90
15690;DHT22;7945;48.816;11.506;2022-12-07T05:19:04;4.00;99.90
15690;DHT22;7945;48.816;11.506;2022-12-07T05:21:31;3.90;99.90
15690;DHT22;7945;48.816;11.506;2022-12-07T05:23:58;3.90;99.90
15690;DHT22;7945;48.816;11.506;2022-12-07T05:26:27;3.90;99.90
15690;DHT22;7945;48.816;11.506;2022-12-07T05:28:55;3.90;99.90
15690;DHT22;7945;48.816;11.506;2022-12-07T05:31:22;3.90;99.90
15690;DHT22;7945;48.816;11.506;2022-12-07T05:33:49;3.90;99.90
15690;DHT22;7945;48.816;11.506;2022-12-07T05:36:16;3.90;99.90
15690;DHT22;7945;48.816;11.506;2022-12-07T05:38:43;3.90;99.90
15690;DHT22;7945;48.816;11.506;2022-12-07T05:41:13;4.20;99.90
15690;DHT22;7945;48.816;11.506;2022-12-07T05:43:56;4.30;99.90
15690;DHT22;7945;48.816;11.506;2022-12-07T05:46:22;4.20;99.90
15690;DHT22;7945;48.816;11.506;2022-12-07T05:48:49;4.10;99.90
15690;DHT22;7945;48.816;11.506;2022-12-07T05:51:16;4.10;99.90
15690;DHT22;7945;48.816;11.506;2022-12-07T05:53:44;4.00;99.90
15690;DHT22;7945;48.816;11.506;2022-12-07T05:56:10;3.90;99.90
15690;DHT22;7945;48.816;11.506;2022-12-07T05:58:37;3.90;99.90
15690;DHT22;7945;48.816;11.506;2022-12-07T06:01:23;3.90;99.90
15690;DHT22;7945;48.816;11.506;2022-12-07T06:03:50;3.80;99.90
15690;DHT22;7945;48.816;11.506;2022-12-07T06:06:16;3.80;99.90
15690;DHT22;7945;48.816;11.506;2022-12-07T06:08:43;3.80;99.90
15690;DHT22;7945;48.816;11.506;2022-12-07T06:11:10;3.70;99.90
15690;DHT22;7945;48.816;11.506;2022-12-07T06:14:53;3.60;99.90
15690;DHT22;7945;48.816;11.506;2022-12-07T06:17:20;3.60;99.90
15690;DHT22;7945;48.816;11.506;2022-12-07T06:19:46;3.60;99.90
15690;DHT22;7945;48.816;11.506;2022-12-07T06:22:13;3.60;99.90
15690;DHT22;7945;48.816;11.506;2022-12-07T06:24:42;3.50;99.90
15690;DHT22;7945;48.816;11.506;2022-12-07T06:27:09;3.50;99.90
15690;DHT22;7945;48.816;11.506;2022-12-07T06:29:36;3.50;99.90
15690;DHT22;7945;48.816;11.506;2022-12-07T06:32:05;3.40;99.90
15690;DHT22;7945;48.816;11.506;2022-12-07T06:34:31;3.40;99.90
15690;DHT22;7945;48.816;11.506;2022-12-07T06:36:58;3.40;99.90
15690;DHT22;7945;48.816;11.506;2022-12-07T06:39:26;3.40;99.90
15690;DHT22;7945;48.816;11.506;2022-12-07T06:41:53;3.30;99.90
15690;DHT22;7945;48.816;11.506;2022-12-07T06:44:21;3.40;99.90
15690;DHT22;7945;48.816;11.506;2022-12-07T06:46:48;3.30;99.90
15690;DHT22;7945;48.816;11.506;2022-12-07T06:49:17;3.30;99.90
15690;DHT22;7945;48.816;11.506;2022-12-07T06:51:44;3.30;99.90
15690;DHT22;7945;48.816;11.506;2022-12-07T06:54:12;3.30;99.90
15690;DHT22;7945;48.816;11.506;2022-12-07T06:56:39;3.30;99.90
15690;DHT22;7945;48.816;11.506;2022-12-07T06:59:07;3.30;99.90
15690;DHT22;7945;48.816;11.506;2022-12-07T07:01:35;3.30;99.90
15690;DHT22;7945;48.816;11.506;2022-12-07T07:04:02;3.30;99.90
15690;DHT22;7945;48.816;11.506;2022-12-07T07:06:30;3.40;99.90
15690;DHT22;7945;48.816;11.506;2022-12-07T07:08:57;3.30;99.90
15690;DHT22;7945;48.816;11.506;2022-12-07T07:11:24;3.30;99.90
15690;DHT22;7945;48.816;11.506;2022-12-07T07:13:51;3.40;99.90
15690;DHT22;7945;48.816;11.506;2022-12-07T07:16:19;3.40;99.90
15690;DHT22;7945;48.816;11.506;2022-12-07T07:18:46;3.40;99.90
15690;DHT22;7945;48.816;11.506;2022-12-07T07:21:12;3.40;99.90
15690;DHT22;7945;48.816;11.506;2022-12-07T07:23:41;3.50;99.90
15690;DHT22;7945;48.816;11.506;2022-12-07T07:26:07;3.50;99.90
15690;DHT22;7945;48.816;11.506;2022-12-07T07:28:34;3.50;99.90
15690;DHT22;7945;48.816;11.506;2022-12-07T07:31:02;3.50;99.90
15690;DHT22;7945;48.816;11.506;2022-12-07T07:33:29;3.50;99.90
15690;DHT22;7945;48.816;11.506;2022-12-07T07:35:55;3.60;99.90
15690;DHT22;7945;48.816;11.506;2022-12-07T07:38:22;3.60;99.90
15690;DHT22;7945;48.816;11.506;2022-12-07T07:40:50;3.60;99.90
15690;DHT22;7945;48.816;11.506;2022-12-07T07:43:17;3.60;99.90
15690;DHT22;7945;48.816;11.506;2022-12-07T07:45:44;3.70;99.90
15690;DHT22;7945;48.816;11.506;2022-12-07T07:48:11;3.70;99.90
15690;DHT22;7945;48.816;11.506;2022-12-07T07:50:38;3.70;99.90
15690;DHT22;7945;48.816;11.506;2022-12-07T07:53:04;3.80;99.90
15690;DHT22;7945;48.816;11.506;2022-12-07T07:55:31;3.80;99.90
15690;DHT22;7945;48.816;11.506;2022-12-07T07:57:59;3.90;99.90
15690;DHT22;7945;48.816;11.506;2022-12-07T08:00:26;3.90;99.90
15690;DHT22;7945;48.816;11.506;2022-12-07T08:02:53;3.90;99.90
15690;DHT22;7945;48.816;11.506;2022-12-07T08:05:19;4.00;99.90
15690;DHT22;7945;48.816;11.506;2022-12-07T08:07:46;4.00;99.90
15690;DHT22;7945;48.816;11.506;2022-12-07T08:10:14;4.10;99.90
15690;DHT22;7945;48.816;11.506;2022-12-07T08:12:42;4.10;99.90
15690;DHT22;7945;48.816;11.506;2022-12-07T08:15:25;4.10;99.90
15690;DHT22;7945;48.816;11.506;2022-12-07T08:17:52;4.20;99.90
15690;DHT22;7945;48.816;11.506;2022-12-07T08:20:19;4.20;99.90
15690;DHT22;7945;48.816;11.506;2022-12-07T08:22:46;4.20;99.90
15690;DHT22;7945;48.816;11.506;2022-12-07T08:25:12;4.20;99.90
15690;DHT22;7945;48.816;11.506;2022-12-07T08:27:39;4.30;99.90
15690;DHT22;7945;48.816;11.506;2022-12-07T08:30:07;4.30;99.90
15690;DHT22;7945;48.816;11.506;2022-12-07T08:32:35;4.30;99.90
15690;DHT22;7945;48.816;11.506;2022-12-07T08:35:02;4.30;99.90
15690;DHT22;7945;48.816;11.506;2022-12-07T08:37:29;4.30;99.90
15690;DHT22;7945;48.816;11.506;2022-12-07T08:39:56;4.30;99.90
15690;DHT22;7945;48.816;11.506;2022-12-07T08:42:22;4.30;99.90
15690;DHT22;7945;48.816;11.506;2022-12-07T08:44:52;4.30;99.90
15690;DHT22;7945;48.816;11.506;2022-12-07T08:47:19;4.20;99.90
15690;DHT22;7945;48.816;11.506;2022-12-07T08:49:49;4.20;99.90
15690;DHT22;7945;48.816;11.506;2022-12-07T08:52:17;4.20;99.90
15690;DHT22;7945;48.816;11.506;2022-12-07T08:54:44;4.20;99.90
15690;DHT22;7945;48.816;11.506;2022-12-07T08:57:12;4.20;99.90
15690;DHT22;7945;48.816;11.506;2022-12-07T08:59:38;4.40;99.90
15690;DHT22;7945;48.816;11.506;2022-12-07T09:02:06;4.10;99.90
15690;DHT22;7945;48.816;11.506;2022-12-07T09:04:33;4.10;99.90
15690;DHT22;7945;48.816;11.506;2022-12-07T09:07:01;4.20;99.90
15690;DHT22;7945;48.816;11.506;2022-12-07T09:09:28;4.20;99.90
15690;DHT22;7945;48.816;11.506;2022-12-07T09:11:54;4.30;99.90
15690;DHT22;7945;48.816;11.506;2022-12-07T09:14:21;4.30;99.90
15690;DHT22;7945;48.816;11.506;2022-12-07T09:16:48;4.30;99.90
15690;DHT22;7945;48.816;11.506;2022-12-07T09:19:15;4.40;99.90
15690;DHT22;7945;48.816;11.506;2022-12-07T09:21:42;4.40;99.90
15690;DHT22;7945;48.816;11.506;2022-12-07T09:24:11;4.40;99.90
15690;DHT22;7945;48.816;11.506;2022-12-07T09:26:38;4.40;99.90
15690;DHT22;7945;48.816;11.506;2022-12-07T09:29:06;4.40;99.90
15690;DHT22;7945;48.816;11.506;2022-12-07T09:31:32;4.40;99.90
15690;DHT22;7945;48.816;11.506;2022-12-07T09:34:00;4.40;99.90
15690;DHT22;7945;48.816;11.506;2022-12-07T09:36:28;4.40;99.90
15690;DHT22;7945;48.816;11.506;2022-12-07T09:38:55;4.40;99.90
15690;DHT22;7945;48.816;11.506;2022-12-07T09:41:25;4.40;99.90
15690;DHT22;7945;48.816;11.506;2022-12-07T09:43:58;4.40;99.90
15690;DHT22;7945;48.816;11.506;2022-12-07T09:46:31;4.40;99.90
15690;DHT22;7945;48.816;11.506;2022-12-07T09:49:00;4.40;99.90
15690;DHT22;7945;48.816;11.506;2022-12-07T09:51:26;4.40;99.90
15690;DHT22;7945;48.816;11.506;2022-12-07T09:53:56;4.40;99.90
15690;DHT22;7945;48.816;11.506;2022-12-07T09:56:25;4.40;99.90
15690;DHT22;7945;48.816;11.506;2022-12-07T09:58:58;4.50;99.90
15690;DHT22;7945;48.816;11.506;2022-12-07T10:01:28;4.60;99.90
15690;DHT22;7945;48.816;11.506;2022-12-07T10:04:02;4.60;99.90
15690;DHT22;7945;48.816;11.506;2022-12-07T10:06:32;4.60;99.90
15690;DHT22;7945;48.816;11.506;2022-12-07T10:08:59;4.60;99.90
15690;DHT22;7945;48.816;11.506;2022-12-07T10:11:27;4.50;99.90
15690;DHT22;7945;48.816;11.506;2022-12-07T10:13:54;4.50;99.90
15690;DHT22;7945;48.816;11.506;2022-12-07T10:16:42;4.50;99.90
15690;DHT22;7945;48.816;11.506;2022-12-07T10:19:20;4.60;99.90
15690;DHT22;7945;48.816;11.506;2022-12-07T10:22:03;4.60;99.90
15690;DHT22;7945;48.816;11.506;2022-12-07T10:24:31;4.60;99.90
15690;DHT22;7945;48.816;11.506;2022-12-07T10:26:59;4.70;99.90
15690;DHT22;7945;48.816;11.506;2022-12-07T10:29:30;4.70;99.90
15690;DHT22;7945;48.816;11.506;2022-12-07T10:31:59;4.70;99.90
15690;DHT22;7945;48.816;11.506;2022-12-07T10:34:28;4.70;99.90
15690;DHT22;7945;48.816;11.506;2022-12-07T10:37:14;4.70;99.90
15690;DHT22;7945;48.816;11.506;2022-12-07T10:39:42;4.70;99.90
15690;DHT22;7945;48.816;11.506;2022-12-07T10:42:18;4.70;99.90
15690;DHT22;7945;48.816;11.506;2022-12-07T10:44:46;4.70;99.90
15690;DHT22;7945;48.816;11.506;2022-12-07T10:47:27;4.70;99.90
15690;DHT22;7945;48.816;11.506;2022-12-07T10:53:02;4.80;99.90
15690;DHT22;7945;48.816;11.506;2022-12-07T10:55:45;4.80;99.90
15690;DHT22;7945;48.816;11.506;2022-12-07T10:58:44;4.70;99.90
15690;DHT22;7945;48.816;11.506;2022-12-07T11:01:21;4.70;99.90
15690;DHT22;7945;48.816;11.506;2022-12-07T11:04:13;4.70;99.90
15690;DHT22;7945;48.816;11.506;2022-12-07T11:06:47;4.80;99.90
15690;DHT22;7945;48.816;11.506;2022-12-07T11:09:44;4.80;99.90
15690;DHT22;7945;48.816;11.506;2022-12-07T11:12:21;4.80;99.90
15690;DHT22;7945;48.816;11.506;2022-12-07T11:14:58;4.80;99.90
15690;DHT22;7945;48.816;11.506;2022-12-07T11:17:34;4.80;99.90
15690;DHT22;7945;48.816;11.506;2022-12-07T11:20:14;4.90;99.90
15690;DHT22;7945;48.816;11.506;2022-12-07T11:22:50;4.90;99.90
15690;DHT22;7945;48.816;11.506;2022-12-07T11:25:23;4.90;99.90
15690;DHT22;7945;48.816;11.506;2022-12-07T11:28:09;4.90;99.90
15690;DHT22;7945;48.816;11.506;2022-12-07T11:30:49;5.00;99.90
15690;DHT22;7945;48.816;11.506;2022-12-07T11:33:20;5.10;99.90
15690;DHT22;7945;48.816;11.506;2022-12-07T11:35:57;5.10;99.90
15690;DHT22;7945;48.816;11.506;2022-12-07T11:38:33;5.10;99.90
15690;DHT22;7945;48.816;11.506;2022-12-07T11:41:05;5.10;99.90
15690;DHT22;7945;48.816;11.506;2022-12-07T11:43:50;5.10;99.90
15690;DHT22;7945;48.816;11.506;2022-12-07T11:46:24;5.10;99.90
15690;DHT22;7945;48.816;11.506;2022-12-07T11:48:57;5.20;99.90
15690;DHT22;7945;48.816;11.506;2022-12-07T11:51:25;5.20;99.90
15690;DHT22;7945;48.816;11.506;2022-12-07T11:53:55;5.20;99.90
15690;DHT22;7945;48.816;11.506;2022-12-07T11:56:26;5.20;99.90
15690;DHT22;7945;48.816;11.506;2022-12-07T11:58:56;5.20;99.90
15690;DHT22;7945;48.816;11.506;2022-12-07T12:01:35;5.10;99.90
15690;DHT22;7945;48.816;11.506;2022-12-07T12:04:07;5.20;99.90
15690;DHT22;7945;48.816;11.506;2022-12-07T12:06:41;5.20;99.90
15690;DHT22;7945;48.816;11.506;2022-12-07T12:09:13;5.20;99.90
15690;DHT22;7945;48.816;11.506;2022-12-07T12:11:55;5.20;99.90
15690;DHT22;7945;48.816;11.506;2022-12-07T12:14:38;5.20;99.90
15690;DHT22;7945;48.816;11.506;2022-12-07T12:17:39;5.50;99.90
15690;DHT22;7945;48.816;11.506;2022-12-07T12:20:20;5.20;99.90
15690;DHT22;7945;48.816;11.506;2022-12-07T12:22:51;5.20;99.90
15690;DHT22;7945;48.816;11.506;2022-12-07T12:25:21;5.20;99.90
15690;DHT22;7945;48.816;11.506;2022-12-07T12:27:49;5.20;99.90
15690;DHT22;7945;48.816;11.506;2022-12-07T12:30:31;5.10;99.90
15690;DHT22;7945;48.816;11.506;2022-12-07T12:33:06;5.20;99.90
15690;DHT22;7945;48.816;11.506;2022-12-07T12:35:38;5.20;99.90
15690;DHT22;7945;48.816;11.506;2022-12-07T12:38:28;5.20;99.90
15690;DHT22;7945;48.816;11.506;2022-12-07T12:40:56;5.20;99.90
15690;DHT22;7945;48.816;11.506;2022-12-07T12:43:43;5.30;99.90
15690;DHT22;7945;48.816;11.506;2022-12-07T12:52:49;5.70;99.90
15690;DHT22;7945;48.816;11.506;2022-12-07T12:58:35;5.80;99.90
15690;DHT22;7945;48.816;11.506;2022-12-07T13:04:51;5.60;99.90
15690;DHT22;7945;48.816;11.506;2022-12-07T13:07:52;5.60;99.90
15690;DHT22;7945;48.816;11.506;2022-12-07T13:10:34;5.60;99.90
15690;DHT22;7945;48.816;11.506;2022-12-07T13:13:04;5.60;99.90
15690;DHT22;7945;48.816;11.506;2022-12-07T13:15:33;5.60;99.90
15690;DHT22;7945;48.816;11.506;2022-12-07T13:18:02;5.60;99.90
15690;DHT22;7945;48.816;11.506;2022-12-07T13:20:49;5.60;99.90
15690;DHT22;7945;48.816;11.506;2022-12-07T13:23:29;5.60;99.90
15690;DHT22;7945;48.816;11.506;2022-12-07T13:26:12;5.60;99.90
15690;DHT22;7945;48.816;11.506;2022-12-07T13:28:43;5.70;99.90
15690;DHT22;7945;48.816;11.506;2022-12-07T13:31:29;5.70;99.90
15690;DHT22;7945;48.816;11.506;2022-12-07T13:33:57;5.70;99.90
15690;DHT22;7945;48.816;11.506;2022-12-07T13:36:25;5.70;99.90
15690;DHT22;7945;48.816;11.506;2022-12-07T13:38:56;5.80;99.90
15690;DHT22;7945;48.816;11.506;2022-12-07T13:41:25;5.80;99.90
15690;DHT22;7945;48.816;11.506;2022-12-07T13:43:59;5.80;99.90
15690;DHT22;7945;48.816;11.506;2022-12-07T13:46:34;5.80;99.90
15690;DHT22;7945;48.816;11.506;2022-12-07T13:49:01;5.90;99.90
15690;DHT22;7945;48.816;11.506;2022-12-07T13:51:34;5.90;99.90
15690;DHT22;7945;48.816;11.506;2022-12-07T13:54:10;5.90;99.90
15690;DHT22;7945;48.816;11.506;2022-12-07T13:56:38;5.90;99.90
15690;DHT22;7945;48.816;11.506;2022-12-07T13:59:07;5.80;99.90
15690;DHT22;7945;48.816;11.506;2022-12-07T14:01:36;5.80;99.90
15690;DHT22;7945;48.816;11.506;2022-12-07T14:04:34;5.80;99.90
15690;DHT22;7945;48.816;11.506;2022-12-07T14:07:20;5.90;99.90
15690;DHT22;7945;48.816;11.506;2022-12-07T14:10:00;5.90;99.90
15690;DHT22;7945;48.816;11.506;2022-12-07T14:12:29;5.90;99.90
15690;DHT22;7945;48.816;11.506;2022-12-07T14:14:57;5.90;99.90
15690;DHT22;7945;48.816;11.506;2022-12-07T14:17:26;5.90;99.90
15690;DHT22;7945;48.816;11.506;2022-12-07T14:19:54;5.90;99.90
15690;DHT22;7945;48.816;11.506;2022-12-07T14:22:32;5.90;99.90
15690;DHT22;7945;48.816;11.506;2022-12-07T14:25:17;5.90;99.90
15690;DHT22;7945;48.816;11.506;2022-12-07T14:27:50;5.90;99.90
15690;DHT22;7945;48.816;11.506;2022-12-07T14:30:19;6.00;99.90
15690;DHT22;7945;48.816;11.506;2022-12-07T14:32:48;5.90;99.90
15690;DHT22;7945;48.816;11.506;2022-12-07T14:35:17;5.90;99.90
15690;DHT22;7945;48.816;11.506;2022-12-07T14:37:47;5.90;99.90
15690;DHT22;7945;48.816;11.506;2022-12-07T14:40:17;5.80;99.90
15690;DHT22;7945;48.816;11.506;2022-12-07T14:42:45;5.80;99.90
15690;DHT22;7945;48.816;11.506;2022-12-07T14:45:15;5.80;99.90
15690;DHT22;7945;48.816;11.506;2022-12-07T14:47:43;5.80;99.90
15690;DHT22;7945;48.816;11.506;2022-12-07T14:50:11;5.80;99.90
15690;DHT22;7945;48.816;11.506;2022-12-07T14:52:39;5.80;99.90
15690;DHT22;7945;48.816;11.506;2022-12-07T14:55:13;5.80;99.90
15690;DHT22;7945;48.816;11.506;2022-12-07T14:57:42;5.80;99.90
15690;DHT22;7945;48.816;11.506;2022-12-07T15:00:13;5.80;99.90
15690;DHT22;7945;48.816;11.506;2022-12-07T15:02:40;5.90;99.90
15690;DHT22;7945;48.816;11.506;2022-12-07T15:05:08;5.80;99.90
15690;DHT22;7945;48.816;11.506;2022-12-07T15:07:35;5.80;99.90
15690;DHT22;7945;48.816;11.506;2022-12-07T15:10:02;5.80;99.90
15690;DHT22;7945;48.816;11.506;2022-12-07T15:12:29;5.70;99.90
15690;DHT22;7945;48.816;11.506;2022-12-07T15:14:58;5.70;99.90
15690;DHT22;7945;48.816;11.506;2022-12-07T15:17:26;5.70;99.90
15690;DHT22;7945;48.816;11.506;2022-12-07T15:19:53;5.70;99.90
15690;DHT22;7945;48.816;11.506;2022-12-07T15:22:20;5.60;99.90
15690;DHT22;7945;48.816;11.506;2022-12-07T15:24:46;5.60;99.90
15690;DHT22;7945;48.816;11.506;2022-12-07T15:27:13;5.60;99.90
15690;DHT22;7945;48.816;11.506;2022-12-07T15:29:40;5.60;99.90
15690;DHT22;7945;48.816;11.506;2022-12-07T15:32:08;5.60;99.90
15690;DHT22;7945;48.816;11.506;2022-12-07T15:34:35;5.50;99.90
15690;DHT22;7945;48.816;11.506;2022-12-07T15:37:02;5.50;99.90
15690;DHT22;7945;48.816;11.506;2022-12-07T15:39:29;5.50;99.90
15690;DHT22;7945;48.816;11.506;2022-12-07T15:41:56;5.50;99.90
15690;DHT22;7945;48.816;11.506;2022-12-07T15:44:23;5.50;99.90
15690;DHT22;7945;48.816;11.506;2022-12-07T15:47:08;5.50;99.90
15690;DHT22;7945;48.816;11.506;2022-12-07T15:49:35;5.60;99.90
15690;DHT22;7945;48.816;11.506;2022-12-07T15:52:02;5.60;99.90
15690;DHT22;7945;48.816;11.506;2022-12-07T15:54:29;5.60;99.90
15690;DHT22;7945;48.816;11.506;2022-12-07T15:56:57;5.60;99.90
15690;DHT22;7945;48.816;11.506;2022-12-07T15:59:26;5.60;99.90
15690;DHT22;7945;48.816;11.506;2022-12-07T16:01:53;5.60;99.90
15690;DHT22;7945;48.816;11.506;2022-12-07T16:04:21;5.50;99.90
15690;DHT22;7945;48.816;11.506;2022-12-07T16:06:48;5.60;99.90
15690;DHT22;7945;48.816;11.506;2022-12-07T16:09:16;5.50;99.90
15690;DHT22;7945;48.816;11.506;2022-12-07T16:11:43;5.50;99.90
15690;DHT22;7945;48.816;11.506;2022-12-07T16:14:09;5.50;99.90
15690;DHT22;7945;48.816;11.506;2022-12-07T16:16:36;5.50;99.90
15690;DHT22;7945;48.816;11.506;2022-12-07T16:19:05;5.50;99.90
15690;DHT22;7945;48.816;11.506;2022-12-07T16:21:34;5.60;99.90
15690;DHT22;7945;48.816;11.506;2022-12-07T16:24:02;5.60;99.90
15690;DHT22;7945;48.816;11.506;2022-12-07T16:26:29;5.60;99.90
15690;DHT22;7945;48.816;11.506;2022-12-07T16:28:55;5.60;99.90